createdAt,value
2023-01-02T00:02:14.713Z,6.17
2023-01-02T00:05:21.081Z,6.08
2023-01-02T00:08:30.685Z,6.05
2023-01-02T00:11:37.936Z,6.09
2023-01-02T00:14:44.932Z,6.00
2023-01-02T00:17:51.026Z,5.99
2023-01-02T00:20:58.399Z,6.08
2023-01-02T00:24:07.897Z,6.16
2023-01-02T00:27:14.776Z,6.15
2023-01-02T00:30:21.160Z,6.12
2023-01-02T00:33:28.227Z,6.15
2023-01-02T00:36:34.401Z,6.13
2023-01-02T00:39:44.009Z,6.20
2023-01-02T00:42:50.164Z,6.12
2023-01-02T00:45:57.341Z,6.09
2023-01-02T00:49:03.459Z,6.10
2023-01-02T00:52:10.467Z,6.14
2023-01-02T00:55:19.348Z,6.12
2023-01-02T00:58:26.435Z,6.12
2023-01-02T01:01:32.928Z,6.13
2023-01-02T01:04:41.164Z,6.18
2023-01-02T01:07:47.225Z,6.13
2023-01-02T01:10:56.708Z,6.12
2023-01-02T01:14:02.821Z,6.16
2023-01-02T01:17:10.205Z,6.29
2023-01-02T01:20:16.366Z,6.21
2023-01-02T01:23:25.013Z,6.21
2023-01-02T01:26:33.731Z,6.17
2023-01-02T01:29:40.685Z,6.28
2023-01-02T01:32:46.832Z,6.28
2023-01-02T01:35:53.662Z,6.19
2023-01-02T01:38:59.785Z,6.08
2023-01-02T01:42:09.426Z,6.00
2023-01-02T01:45:19.722Z,5.90
2023-01-02T01:48:27.316Z,5.95
2023-01-02T01:51:40.047Z,6.00
2023-01-02T01:54:54.860Z,5.90
2023-01-02T01:58:09.903Z,5.78
2023-01-02T02:01:20.954Z,5.88
2023-01-02T02:04:30.084Z,5.84
2023-01-02T02:07:45.701Z,5.70
2023-01-02T02:10:53.394Z,5.73
2023-01-02T02:14:04.665Z,5.66
2023-01-02T02:17:26.474Z,5.58
2023-01-02T02:20:49.221Z,5.58
2023-01-02T02:24:32.250Z,5.66
2023-01-02T02:28:16.175Z,5.64
2023-01-02T02:31:42.966Z,5.65
2023-01-02T02:35:05.746Z,5.81
2023-01-02T02:38:24.980Z,5.83
2023-01-02T02:41:42.127Z,5.78
2023-01-02T02:45:05.485Z,5.78
2023-01-02T02:48:26.485Z,5.92
2023-01-02T02:51:45.427Z,6.01
2023-01-02T02:55:04.423Z,6.03
2023-01-02T02:58:12.242Z,6.10
2023-01-02T03:01:26.800Z,6.20
2023-01-02T03:04:38.854Z,6.18
2023-01-02T03:08:05.088Z,6.02
2023-01-02T03:11:12.948Z,5.86
2023-01-02T03:14:33.772Z,5.83
2023-01-02T03:18:06.354Z,5.85
2023-01-02T03:21:31.205Z,5.83
2023-01-02T03:24:44.062Z,5.83
2023-01-02T03:27:55.931Z,5.88
2023-01-02T03:31:06.800Z,5.84
2023-01-02T03:34:19.143Z,5.59
2023-01-02T03:37:36.479Z,5.08
2023-01-02T03:40:52.000Z,4.68
2023-01-02T03:44:03.681Z,4.25
2023-01-02T03:47:31.449Z,3.93
2023-01-02T03:50:50.109Z,3.78
2023-01-02T03:54:03.215Z,3.64
2023-01-02T03:57:25.245Z,3.70
2023-01-02T04:00:44.569Z,3.62
2023-01-02T04:04:01.123Z,3.55
2023-01-02T04:07:16.468Z,3.45
2023-01-02T04:10:27.874Z,3.37
2023-01-02T04:13:45.461Z,3.34
2023-01-02T04:16:55.678Z,3.41
2023-01-02T04:20:10.043Z,3.54
2023-01-02T04:23:22.616Z,3.60
2023-01-02T04:26:41.771Z,3.66
2023-01-02T04:29:47.964Z,3.76
2023-01-02T04:32:57.419Z,3.83
2023-01-02T04:36:12.225Z,4.06
2023-01-02T04:39:20.011Z,4.37
2023-01-02T04:42:30.032Z,4.67
2023-01-02T04:45:36.992Z,4.82
2023-01-02T04:48:43.053Z,4.88
2023-01-02T04:51:49.961Z,4.79
2023-01-02T04:54:56.021Z,4.57
2023-01-02T04:58:05.649Z,4.64
2023-01-02T05:01:13.224Z,4.48
2023-01-02T05:04:20.275Z,4.41
2023-01-02T05:07:26.391Z,4.11
2023-01-02T05:10:33.430Z,3.91
2023-01-02T05:13:42.623Z,3.73
2023-01-02T05:16:49.704Z,3.51
2023-01-02T05:19:56.214Z,3.44
2023-01-02T05:23:15.846Z,3.19
2023-01-02T05:26:22.302Z,3.17
2023-01-02T05:29:32.813Z,3.21
2023-01-02T05:32:39.154Z,3.32
2023-01-02T05:35:46.172Z,3.20
2023-01-02T05:38:52.917Z,2.85
2023-01-02T05:41:59.751Z,2.78
2023-01-02T05:45:10.372Z,2.78
2023-01-02T05:48:18.207Z,2.93
2023-01-02T05:51:24.315Z,3.12
2023-01-02T05:54:31.163Z,3.33
2023-01-02T05:57:38.032Z,3.50
2023-01-02T06:00:47.754Z,3.67
2023-01-02T06:03:57.325Z,3.73
2023-01-02T06:07:04.332Z,3.77
2023-01-02T06:10:12.368Z,3.78
2023-01-02T06:13:19.322Z,3.70
2023-01-02T06:16:29.258Z,3.69
2023-01-02T06:19:36.350Z,3.80
2023-01-02T06:22:42.464Z,3.89
2023-01-02T06:25:50.069Z,3.91
2023-01-02T06:28:59.490Z,3.88
2023-01-02T06:32:09.513Z,3.96
2023-01-02T06:35:15.676Z,4.05
2023-01-02T06:38:22.747Z,4.15
2023-01-02T06:41:28.981Z,4.26
2023-01-02T06:44:35.871Z,4.43
2023-01-02T06:47:44.740Z,4.52
2023-01-02T06:50:51.808Z,4.58
2023-01-02T06:53:58.117Z,4.59
2023-01-02T06:57:05.068Z,4.65
2023-01-02T07:00:14.022Z,4.62
2023-01-02T07:03:23.541Z,4.71
2023-01-02T07:06:30.733Z,4.71
2023-01-02T07:09:38.391Z,4.81
2023-01-02T07:12:45.091Z,4.88
2023-01-02T07:15:52.110Z,4.85
2023-01-02T07:19:00.840Z,4.35
2023-01-02T07:22:07.837Z,4.24
2023-01-02T07:25:14.134Z,4.00
2023-01-02T07:28:21.096Z,3.83
2023-01-02T07:31:29.473Z,3.87
2023-01-02T07:34:39.210Z,3.54
2023-01-02T07:37:45.537Z,3.30
2023-01-02T07:40:52.624Z,3.20
2023-01-02T07:43:59.491Z,3.24
2023-01-02T07:47:06.613Z,3.34
2023-01-02T07:50:15.742Z,3.35
2023-01-02T07:53:22.894Z,3.20
2023-01-02T07:56:30.112Z,3.03
2023-01-02T07:59:37.112Z,3.04
2023-01-02T08:02:43.350Z,2.98
2023-01-02T08:05:53.016Z,3.02
2023-01-02T08:08:59.169Z,3.04
2023-01-02T08:12:06.082Z,3.24
2023-01-02T08:15:13.346Z,3.34
2023-01-02T08:18:20.418Z,3.35
2023-01-02T08:21:30.177Z,3.40
2023-01-02T08:24:37.341Z,3.31
2023-01-02T08:27:45.086Z,3.40
2023-01-02T08:30:52.095Z,3.34
2023-01-02T08:33:58.311Z,3.70
2023-01-02T08:37:07.777Z,4.17
2023-01-02T08:40:15.532Z,4.48
2023-01-02T08:43:22.430Z,4.96
2023-01-02T08:46:28.530Z,5.35
2023-01-02T08:49:35.743Z,5.51
2023-01-02T08:52:44.525Z,5.37
2023-01-02T08:55:51.432Z,5.38
2023-01-02T08:59:00.282Z,5.72
2023-01-02T09:02:07.235Z,5.85
2023-01-02T09:05:13.743Z,6.16
2023-01-02T09:08:23.247Z,6.34
2023-01-02T09:11:32.827Z,6.58
2023-01-02T09:14:39.773Z,6.41
2023-01-02T09:17:47.975Z,7.03
2023-01-02T09:34:06.067Z,8.88
2023-01-02T09:37:12.964Z,8.77
2023-01-02T09:40:19.386Z,8.88
2023-01-02T09:43:37.380Z,8.79
2023-01-02T09:46:53.823Z,9.61
2023-01-02T09:50:10.388Z,10.51
2023-01-02T09:53:19.692Z,10.82
2023-01-02T09:56:36.196Z,11.25
2023-01-02T09:59:55.847Z,11.83
2023-01-02T10:03:19.904Z,12.22
2023-01-02T10:06:42.912Z,13.30
2023-01-02T10:10:04.978Z,14.30
2023-01-02T10:13:44.212Z,14.59
2023-01-02T10:16:59.331Z,14.51
2023-01-02T10:20:23.794Z,14.21
2023-01-02T10:23:43.888Z,14.28
2023-01-02T10:26:56.591Z,13.48
2023-01-02T10:30:18.346Z,13.08
2023-01-02T10:33:34.186Z,13.13
2023-01-02T10:36:46.406Z,13.45
2023-01-02T10:39:55.534Z,13.62
2023-01-02T10:43:04.673Z,14.11
2023-01-02T10:46:10.884Z,15.00
2023-01-02T10:49:19.869Z,15.34
2023-01-02T10:52:35.865Z,15.55
2023-01-02T10:55:47.197Z,15.76
2023-01-02T10:58:56.095Z,15.84
2023-01-02T11:02:04.048Z,15.82
2023-01-02T11:05:22.668Z,15.51
2023-01-02T11:08:40.758Z,15.98
2023-01-02T11:11:54.861Z,16.45
2023-01-02T11:15:25.727Z,16.82
2023-01-02T11:18:37.667Z,16.03
2023-01-02T11:21:46.965Z,16.40
2023-01-02T11:25:04.750Z,16.31
2023-01-02T11:28:23.767Z,16.68
2023-01-02T11:31:30.087Z,16.82
2023-01-02T11:34:41.682Z,16.33
2023-01-02T11:37:55.756Z,16.02
2023-01-02T11:41:05.643Z,15.78
2023-01-02T11:44:20.995Z,15.46
2023-01-02T11:47:39.111Z,15.38
2023-01-02T11:50:47.929Z,15.44
2023-01-02T11:53:59.266Z,15.66
2023-01-02T11:57:07.210Z,16.06
2023-01-02T12:00:23.769Z,15.84
2023-01-02T12:03:33.616Z,16.23
2023-01-02T12:07:12.383Z,16.29
2023-01-02T12:10:52.325Z,16.42
2023-01-02T12:14:16.920Z,16.18
2023-01-02T12:17:38.743Z,15.82
2023-01-02T12:21:03.079Z,15.39
2023-01-02T12:25:05.067Z,15.51
2023-01-02T12:28:41.935Z,15.98
2023-01-02T12:32:19.706Z,16.05
2023-01-02T12:35:55.879Z,15.74
2023-01-02T12:39:33.133Z,15.60
2023-01-02T12:43:27.902Z,15.69
2023-01-02T12:47:16.619Z,15.54
2023-01-02T12:50:56.817Z,15.27
2023-01-02T12:54:37.841Z,15.38
2023-01-02T12:57:59.827Z,15.32
2023-01-02T13:01:24.516Z,15.18
2023-01-02T13:04:40.221Z,14.52
2023-01-02T13:07:56.428Z,14.62
2023-01-02T13:11:09.158Z,14.54
2023-01-02T13:14:23.506Z,14.67
2023-01-02T13:17:54.485Z,14.93
2023-01-02T13:21:16.038Z,14.23
2023-01-02T13:24:30.183Z,13.43
2023-01-02T13:27:37.523Z,13.01
2023-01-02T13:31:19.104Z,12.92
2023-01-02T13:34:30.898Z,12.97
2023-01-02T13:37:38.561Z,12.90
2023-01-02T13:40:48.733Z,12.62
2023-01-02T13:44:03.391Z,12.22
2023-01-02T13:47:25.905Z,11.86
2023-01-02T13:50:41.275Z,11.66
2023-01-02T13:53:50.306Z,11.51
2023-01-02T13:57:34.762Z,11.49
2023-01-02T14:00:53.439Z,11.29
2023-01-02T14:04:36.816Z,11.11
2023-01-02T14:07:52.068Z,11.06
2023-01-02T14:11:10.173Z,10.81
2023-01-02T14:14:30.119Z,10.69
2023-01-02T14:17:56.267Z,10.68
2023-01-02T14:21:02.684Z,10.68
2023-01-02T14:24:17.015Z,10.64
2023-01-02T14:27:34.480Z,10.50
2023-01-02T14:30:46.120Z,10.25
2023-01-02T14:33:59.388Z,10.06
2023-01-02T14:37:07.000Z,9.83
2023-01-02T14:40:21.478Z,9.81
2023-01-02T14:43:40.641Z,9.76
2023-01-02T14:46:51.806Z,9.69
2023-01-02T14:50:05.028Z,9.70
2023-01-02T14:53:23.453Z,9.59
2023-01-02T14:56:39.432Z,9.64
2023-01-02T14:59:49.935Z,9.40
2023-01-02T15:03:17.272Z,9.27
2023-01-02T15:06:41.757Z,9.12
2023-01-02T15:09:55.227Z,9.05
2023-01-02T15:13:07.836Z,8.98
2023-01-02T15:16:15.019Z,9.06
2023-01-02T15:19:30.741Z,8.96
2023-01-02T15:22:40.407Z,9.00
2023-01-02T15:25:46.520Z,8.77
2023-01-02T15:28:59.676Z,8.71
2023-01-02T15:32:06.018Z,8.63
2023-01-02T15:35:25.786Z,8.50
2023-01-02T15:38:32.129Z,8.35
2023-01-02T15:41:49.388Z,8.28
2023-01-02T15:45:09.473Z,8.27
2023-01-02T15:48:19.008Z,8.16
2023-01-02T15:51:40.501Z,8.20
2023-01-02T15:54:50.528Z,8.11
2023-01-02T15:57:58.049Z,8.15
2023-01-02T16:01:21.332Z,8.04
2023-01-02T16:04:31.454Z,7.94
2023-01-02T16:07:42.038Z,7.87
2023-01-02T16:10:51.646Z,7.91
2023-01-02T16:14:22.925Z,7.71
2023-01-02T16:17:32.919Z,7.66
2023-01-02T16:20:40.323Z,7.68
2023-01-02T16:23:57.692Z,7.66
2023-01-02T16:27:06.811Z,7.65
2023-01-02T16:30:38.081Z,7.61
2023-01-02T16:33:48.692Z,7.55
2023-01-02T16:37:25.427Z,7.48
2023-01-02T16:41:03.124Z,7.38
2023-01-02T16:44:15.476Z,7.35
2023-01-02T16:47:22.512Z,7.27
2023-01-02T16:50:30.691Z,7.35
2023-01-02T16:53:38.082Z,7.27
2023-01-02T16:56:47.162Z,7.15
2023-01-02T16:59:54.145Z,7.19
2023-01-02T17:03:00.336Z,7.16
2023-01-02T17:06:15.572Z,7.15
2023-01-02T17:09:21.702Z,7.20
2023-01-02T17:12:31.354Z,7.13
2023-01-02T17:15:37.765Z,7.12
2023-01-02T17:18:45.616Z,7.18
2023-01-02T17:21:52.176Z,7.23
2023-01-02T17:24:59.061Z,7.05
2023-01-02T17:28:08.268Z,6.92
2023-01-02T17:31:23.966Z,6.81
2023-01-02T17:34:31.751Z,6.83
2023-01-02T17:37:39.887Z,6.84
2023-01-02T17:40:47.284Z,6.78
2023-01-02T17:44:02.127Z,6.77
2023-01-02T17:47:48.041Z,6.66
2023-01-02T17:50:36.922Z,6.58
2023-01-02T17:53:46.694Z,6.62
2023-01-02T17:56:53.570Z,6.55
2023-01-02T18:00:02.310Z,6.44
2023-01-02T18:03:19.739Z,6.45
2023-01-02T18:06:25.997Z,6.43
2023-01-02T18:09:32.970Z,6.31
2023-01-02T18:12:39.038Z,6.26
2023-01-02T18:15:48.735Z,6.23
2023-01-02T18:18:55.670Z,6.28
2023-01-02T18:22:03.209Z,6.28
2023-01-02T18:25:24.587Z,6.20
2023-01-02T18:28:33.682Z,6.26
2023-01-02T18:31:47.063Z,6.26
2023-01-02T18:34:59.437Z,6.20
2023-01-02T18:38:21.303Z,6.06
2023-01-02T18:41:31.815Z,6.13
2023-01-02T18:44:38.497Z,6.13
2023-01-02T18:47:49.805Z,6.10
2023-01-02T18:51:02.230Z,6.02
2023-01-02T18:54:31.561Z,6.00
2023-01-02T18:57:46.634Z,6.02
2023-01-02T19:00:53.913Z,5.95
2023-01-02T19:04:27.814Z,5.97
2023-01-02T19:07:38.251Z,5.95
2023-01-02T19:10:48.914Z,5.95
2023-01-02T19:13:58.634Z,5.90
2023-01-02T19:17:18.129Z,5.93
2023-01-02T19:20:29.999Z,5.98
2023-01-02T19:23:52.971Z,5.84
2023-01-02T19:27:02.358Z,5.88
2023-01-02T19:30:31.703Z,5.92
2023-01-02T19:33:48.223Z,5.87
2023-01-02T19:37:16.616Z,5.90
2023-01-02T19:40:26.962Z,5.77
2023-01-02T19:43:35.083Z,5.83
2023-01-02T19:46:42.592Z,5.85
2023-01-02T19:49:49.022Z,5.81
2023-01-02T19:52:58.793Z,5.69
2023-01-02T19:56:04.959Z,5.77
2023-01-02T19:59:12.991Z,5.86
2023-01-02T20:02:23.641Z,5.78
2023-01-02T20:05:31.140Z,5.75
2023-01-02T20:08:42.161Z,5.64
2023-01-02T20:12:07.373Z,5.61
2023-01-02T20:15:17.621Z,5.64
2023-01-02T20:18:24.800Z,5.57
2023-01-02T20:21:31.333Z,5.62
2023-01-02T20:24:41.319Z,5.54
2023-01-02T20:27:47.851Z,5.55
2023-01-02T20:30:54.938Z,5.56
2023-01-02T20:34:01.225Z,5.55
2023-01-02T20:37:08.944Z,5.54
2023-01-02T20:40:17.973Z,5.47
2023-01-02T20:43:24.942Z,5.51
2023-01-02T20:46:31.654Z,5.50
2023-01-02T20:49:38.987Z,5.45
2023-01-02T20:52:45.208Z,5.53
2023-01-02T20:55:55.215Z,5.58
2023-01-02T20:59:02.529Z,5.54
2023-01-02T21:02:09.693Z,5.49
2023-01-02T21:05:16.051Z,5.47
2023-01-02T21:08:23.208Z,5.50
2023-01-02T21:11:32.623Z,5.43
2023-01-02T21:14:40.705Z,5.53
2023-01-02T21:17:46.904Z,5.54
2023-01-02T21:20:56.778Z,5.42
2023-01-02T21:24:03.039Z,5.46
2023-01-02T21:27:13.412Z,5.38
2023-01-02T21:30:19.960Z,5.42
2023-01-02T21:33:30.216Z,5.45
2023-01-02T21:36:37.322Z,5.35
2023-01-02T21:39:45.205Z,5.45
2023-01-02T21:42:54.872Z,5.38
2023-01-02T21:46:01.853Z,5.32
2023-01-02T21:49:07.935Z,5.24
2023-01-02T21:52:15.005Z,5.21
2023-01-02T21:55:21.810Z,5.08
2023-01-02T21:58:31.422Z,5.05
2023-01-02T22:01:37.796Z,4.96
2023-01-02T22:04:45.524Z,4.93
2023-01-02T22:07:52.405Z,4.81
2023-01-02T22:11:19.788Z,4.86
2023-01-02T22:14:33.277Z,4.77
2023-01-02T22:17:41.990Z,4.69
2023-01-02T22:20:48.135Z,4.65
2023-01-02T22:23:55.292Z,4.67
2023-01-02T22:27:07.425Z,4.67
2023-01-02T22:30:22.831Z,4.55
2023-01-02T22:33:33.141Z,4.55
2023-01-02T22:36:40.199Z,4.59
2023-01-02T22:39:46.663Z,4.56
2023-01-02T22:43:02.820Z,4.62
2023-01-02T22:46:32.484Z,4.53
2023-01-02T22:49:43.431Z,4.58
2023-01-02T22:52:50.544Z,4.49
2023-01-02T22:55:58.474Z,4.58
2023-01-02T22:59:04.516Z,4.50
2023-01-02T23:02:21.904Z,4.47
2023-01-02T23:05:27.968Z,4.61
2023-01-02T23:08:34.975Z,4.55
2023-01-02T23:11:41.599Z,4.66
2023-01-02T23:14:49.456Z,4.65
2023-01-02T23:18:10.487Z,4.64
2023-01-02T23:21:19.594Z,4.60
2023-01-02T23:24:29.170Z,4.67
2023-01-02T23:27:36.736Z,4.59
2023-01-02T23:30:44.215Z,4.60
2023-01-02T23:33:53.847Z,4.61
2023-01-02T23:37:10.888Z,4.64
2023-01-02T23:40:18.329Z,4.63
2023-01-02T23:43:25.588Z,4.53
2023-01-02T23:46:34.964Z,4.52
2023-01-02T23:49:43.570Z,4.52
2023-01-02T23:52:50.399Z,4.52
2023-01-02T23:55:56.539Z,4.50
2023-01-02T23:59:06.683Z,4.51
